Time;durP1;ratioP1;P1;durP2;ratioP2;P2;SDS_P1;SDS_P2;PMS_P1;PMS_P2;Temp;Humidity;BMP_temperature;BMP_pressure;BME280_temperature;BME280_humidity;BME280_pressure;Samples;Min_cycle;Max_cycle;Signal;HPM_P1;HPM_P2
2023/10/25 00:01:07;;;;;;;7.57;6.45;;;10.30;99.90;;;;;;7368038;19;20010;-72
2023/10/25 00:03:39;;;;;;;7.25;6.55;;;10.30;99.90;;;;;;7356397;19;20032;-72
2023/10/25 00:06:10;;;;;;;8.00;7.13;;;10.30;99.90;;;;;;7369758;19;20541;-72
2023/10/25 00:08:42;;;;;;;6.88;6.28;;;10.30;99.90;;;;;;7365573;19;20011;-73
2023/10/25 00:11:16;;;;;;;7.65;6.95;;;10.20;99.90;;;;;;7365356;19;20105;-73
2023/10/25 00:13:47;;;;;;;8.10;7.30;;;10.20;99.90;;;;;;7364257;19;20025;-73
2023/10/25 00:16:19;;;;;;;7.97;7.25;;;10.20;99.90;;;;;;7365244;19;20021;-72
2023/10/25 00:18:50;;;;;;;10.23;7.65;;;10.20;99.90;;;;;;7367147;19;20014;-73
2023/10/25 00:21:21;;;;;;;7.95;7.15;;;10.20;99.90;;;;;;7368598;19;20097;-73
2023/10/25 00:23:52;;;;;;;8.15;7.20;;;10.10;99.90;;;;;;7365324;19;20097;-73
2023/10/25 00:26:26;;;;;;;8.93;7.57;;;10.10;99.90;;;;;;7372405;19;20066;-72
2023/10/25 00:28:58;;;;;;;8.63;7.25;;;10.10;99.90;;;;;;7372324;19;20543;-73
2023/10/25 00:31:29;;;;;;;9.93;7.35;;;10.10;99.90;;;;;;7370120;19;20022;-73
2023/10/25 00:34:00;;;;;;;7.88;7.03;;;10.10;99.90;;;;;;7366832;19;20041;-72
2023/10/25 00:36:31;;;;;;;9.07;7.57;;;10.10;99.90;;;;;;7368535;19;20423;-72
2023/10/25 00:39:02;;;;;;;10.68;7.28;;;10.10;99.90;;;;;;7367505;19;20515;-72
2023/10/25 00:41:36;;;;;;;9.43;7.93;;;10.10;99.90;;;;;;7366044;19;20015;-71
2023/10/25 00:44:07;;;;;;;10.98;7.50;;;10.10;99.90;;;;;;7366418;19;20443;-72
2023/10/25 00:46:38;;;;;;;9.20;7.60;;;10.10;99.90;;;;;;7365936;19;20007;-72
2023/10/25 00:49:10;;;;;;;8.73;7.32;;;10.10;99.90;;;;;;7360249;19;20015;-73
2023/10/25 00:51:41;;;;;;;10.90;7.32;;;10.20;99.90;;;;;;7366874;19;20493;-72
2023/10/25 00:54:12;;;;;;;10.70;7.88;;;10.20;99.90;;;;;;7360496;19;20066;-71
2023/10/25 00:56:46;;;;;;;8.88;8.07;;;10.10;99.90;;;;;;7364171;19;20014;-72
2023/10/25 00:59:16;;;;;;;8.90;7.97;;;10.20;99.90;;;;;;7374211;19;20017;-70
2023/10/25 01:01:47;;;;;;;11.10;9.18;;;10.30;99.90;;;;;;7374135;19;20139;-71
2023/10/25 01:04:17;;;;;;;8.75;7.85;;;10.30;99.90;;;;;;7373462;19;20010;-71
2023/10/25 01:06:47;;;;;;;12.32;9.15;;;10.30;99.90;;;;;;7373472;19;20465;-72
2023/10/25 01:09:17;;;;;;;8.95;8.05;;;10.30;99.90;;;;;;7372807;19;20081;-72
2023/10/25 01:11:50;;;;;;;10.52;9.18;;;10.30;99.90;;;;;;7373999;19;20085;-69
2023/10/25 01:14:20;;;;;;;11.27;8.82;;;10.20;99.90;;;;;;7374426;19;20074;-70
2023/10/25 01:16:49;;;;;;;9.95;8.95;;;10.30;99.90;;;;;;7373735;19;20023;-72
2023/10/25 01:19:19;;;;;;;11.23;10.02;;;10.30;99.90;;;;;;7373956;19;20018;-70
2023/10/25 01:21:49;;;;;;;13.25;10.43;;;10.30;99.90;;;;;;7373358;19;20760;-70
2023/10/25 01:24:23;;;;;;;11.38;10.18;;;10.30;99.90;;;;;;7374311;19;20404;-70
2023/10/25 01:26:53;;;;;;;17.90;12.73;;;10.30;99.90;;;;;;7374505;19;20010;-70
2023/10/25 01:29:22;;;;;;;16.05;13.63;;;10.20;99.90;;;;;;7372825;19;20158;-70
2023/10/25 01:31:52;;;;;;;16.80;14.75;;;10.20;99.90;;;;;;7372695;19;20358;-70
2023/10/25 01:34:22;;;;;;;16.15;12.98;;;10.20;99.90;;;;;;7373638;19;20015;-72
2023/10/25 01:36:52;;;;;;;14.00;11.90;;;10.30;99.90;;;;;;7373177;19;20009;-71
2023/10/25 01:39:25;;;;;;;15.32;12.00;;;10.20;99.90;;;;;;7373953;19;20094;-71
2023/10/25 01:41:55;;;;;;;14.55;11.73;;;10.20;99.90;;;;;;7373194;19;20011;-71
2023/10/25 01:44:25;;;;;;;13.77;11.90;;;10.20;99.90;;;;;;7373221;19;20021;-70
2023/10/25 01:46:55;;;;;;;12.98;11.15;;;10.10;99.90;;;;;;7371868;19;20029;-70
2023/10/25 01:49:25;;;;;;;15.32;11.82;;;10.10;99.90;;;;;;7372076;19;20010;-70
2023/10/25 01:51:55;;;;;;;14.52;11.98;;;10.10;99.90;;;;;;7371426;19;20090;-70
2023/10/25 01:54:27;;;;;;;15.77;12.02;;;10.10;99.90;;;;;;7371572;19;20010;-70
2023/10/25 01:56:57;;;;;;;14.57;12.65;;;10.10;99.90;;;;;;7372077;19;20018;-70
2023/10/25 01:59:27;;;;;;;15.43;12.32;;;10.10;99.90;;;;;;7373043;19;20024;-70
2023/10/25 02:01:57;;;;;;;13.98;12.48;;;10.10;99.90;;;;;;7378043;19;20010;-70
2023/10/25 02:04:27;;;;;;;14.07;12.15;;;10.00;99.90;;;;;;7377983;19;20018;-70
2023/10/25 02:06:57;;;;;;;15.00;12.75;;;10.00;99.90;;;;;;7379787;19;20003;-71
2023/10/25 02:09:30;;;;;;;14.13;11.60;;;9.90;99.90;;;;;;7378331;19;20109;-70
2023/10/25 02:12:00;;;;;;;14.55;12.02;;;9.90;99.90;;;;;;7379081;19;20011;-69
2023/10/25 02:14:30;;;;;;;17.40;12.70;;;9.90;99.90;;;;;;7378104;19;20014;-70
2023/10/25 02:17:00;;;;;;;15.10;11.65;;;9.80;99.90;;;;;;7378253;19;20014;-70
2023/10/25 02:19:30;;;;;;;13.48;11.60;;;9.80;99.90;;;;;;7378515;19;20021;-71
2023/10/25 02:22:00;;;;;;;12.50;11.18;;;9.80;99.90;;;;;;7378052;19;20025;-70
2023/10/25 02:24:32;;;;;;;12.93;11.52;;;9.80;99.90;;;;;;7377461;19;20006;-70
2023/10/25 02:27:02;;;;;;;11.93;10.55;;;9.80;99.90;;;;;;7378421;19;20094;-70
2023/10/25 02:29:33;;;;;;;11.32;10.10;;;9.80;99.90;;;;;;7377949;19;20482;-70
2023/10/25 02:32:07;;;;;;;13.73;10.30;;;9.80;99.90;;;;;;7377025;19;20336;-70
2023/10/25 02:34:38;;;;;;;11.73;9.27;;;9.80;99.90;;;;;;7375911;19;20014;-70
2023/10/25 02:37:08;;;;;;;12.13;8.93;;;9.80;99.90;;;;;;7379236;19;20018;-70
2023/10/25 02:39:42;;;;;;;10.90;9.60;;;9.80;99.90;;;;;;7378994;19;20078;-70
2023/10/25 02:42:13;;;;;;;12.35;9.27;;;9.80;99.90;;;;;;7374835;19;20628;-70
2023/10/25 02:44:43;;;;;;;11.00;9.23;;;9.90;99.90;;;;;;7370085;19;20023;-70
2023/10/25 02:47:13;;;;;;;12.73;9.27;;;9.90;99.90;;;;;;7377357;19;20017;-71
2023/10/25 02:49:43;;;;;;;10.88;9.68;;;9.90;99.90;;;;;;7377924;19;20014;-70
2023/10/25 02:52:13;;;;;;;11.95;9.50;;;9.80;99.90;;;;;;7376241;19;20006;-70
2023/10/25 02:54:46;;;;;;;11.07;9.98;;;9.80;99.90;;;;;;7378048;19;20476;-72
2023/10/25 02:57:16;;;;;;;12.57;10.60;;;9.90;99.90;;;;;;7387004;19;20010;-70
2023/10/25 02:59:46;;;;;;;13.60;9.93;;;9.90;99.90;;;;;;7387992;19;20022;-70
2023/10/25 03:02:15;;;;;;;15.80;12.43;;;9.90;99.90;;;;;;7376572;19;20093;-70
2023/10/25 03:04:45;;;;;;;15.10;11.73;;;9.90;99.90;;;;;;7378988;19;20010;-70
2023/10/25 03:07:15;;;;;;;15.00;12.65;;;9.90;99.90;;;;;;7379546;19;20081;-70
2023/10/25 03:09:48;;;;;;;14.60;12.15;;;9.90;99.90;;;;;;7377256;19;20021;-70
2023/10/25 03:12:18;;;;;;;17.30;12.52;;;9.80;99.90;;;;;;7373805;19;20443;-70
2023/10/25 03:14:48;;;;;;;14.30;12.55;;;9.80;99.90;;;;;;7375658;19;20090;-70
2023/10/25 03:17:18;;;;;;;18.38;13.52;;;9.80;99.90;;;;;;7375194;19;20066;-70
2023/10/25 03:19:48;;;;;;;16.73;12.52;;;9.80;99.90;;;;;;7377286;19;20588;-71
2023/10/25 03:22:18;;;;;;;14.00;12.27;;;9.70;99.90;;;;;;7377011;19;20011;-70
2023/10/25 03:24:50;;;;;;;13.80;11.80;;;9.80;99.90;;;;;;7376181;19;20014;-69
2023/10/25 03:27:20;;;;;;;16.63;11.35;;;9.80;99.90;;;;;;7376271;19;20018;-70
2023/10/25 03:29:50;;;;;;;16.05;11.52;;;9.80;99.90;;;;;;7374923;19;20002;-70
2023/10/25 03:32:20;;;;;;;13.77;12.13;;;9.80;99.90;;;;;;7373686;19;20067;-70
2023/10/25 03:34:53;;;;;;;13.57;11.85;;;9.80;99.90;;;;;;7376093;19;20041;-70
2023/10/25 03:37:23;;;;;;;13.70;11.63;;;9.80;99.90;;;;;;7377914;19;20036;-70
2023/10/25 03:39:55;;;;;;;14.65;11.73;;;9.80;99.90;;;;;;7376548;19;20404;-71
2023/10/25 03:42:25;;;;;;;13.35;11.18;;;9.70;99.90;;;;;;7375132;19;20014;-70
2023/10/25 03:44:55;;;;;;;12.02;10.57;;;9.70;99.90;;;;;;7374072;19;20085;-70
2023/10/25 03:47:25;;;;;;;11.60;10.40;;;9.70;99.90;;;;;;7374913;19;20093;-71
2023/10/25 03:49:55;;;;;;;10.85;9.10;;;9.70;99.90;;;;;;7374501;19;20386;-70
2023/10/25 03:52:25;;;;;;;12.65;9.50;;;9.70;99.90;;;;;;7373367;19;20018;-70
2023/10/25 03:54:58;;;;;;;11.32;10.13;;;9.60;99.90;;;;;;7374251;19;20018;-69
2023/10/25 03:57:29;;;;;;;15.13;10.48;;;9.60;99.90;;;;;;7375724;19;20380;-70
2023/10/25 03:59:59;;;;;;;12.50;10.85;;;9.60;99.90;;;;;;7375268;19;20043;-69
2023/10/25 04:02:30;;;;;;;11.98;10.77;;;9.60;99.90;;;;;;7375027;19;20506;-70
2023/10/25 04:05:00;;;;;;;12.88;11.02;;;9.60;99.90;;;;;;7375545;19;20014;-71
2023/10/25 04:07:30;;;;;;;12.73;11.25;;;9.60;99.90;;;;;;7376493;19;20074;-71
2023/10/25 04:10:03;;;;;;;14.68;11.65;;;9.50;99.90;;;;;;7375239;19;20477;-70
2023/10/25 04:12:33;;;;;;;13.65;12.20;;;9.60;99.90;;;;;;7374008;19;20375;-70
2023/10/25 04:15:03;;;;;;;14.45;12.32;;;9.50;99.90;;;;;;7373534;19;20576;-70
2023/10/25 04:17:33;;;;;;;14.57;12.15;;;9.60;99.90;;;;;;7375607;19;20011;-70
2023/10/25 04:20:03;;;;;;;14.73;12.38;;;9.60;99.90;;;;;;7375413;19;20010;-70
2023/10/25 04:22:33;;;;;;;13.95;12.52;;;9.60;99.90;;;;;;7373161;19;20082;-70
2023/10/25 04:25:06;;;;;;;16.48;14.63;;;9.50;99.90;;;;;;7375084;19;21902;-71
2023/10/25 04:27:38;;;;;;;20.02;15.95;;;9.50;99.90;;;;;;7377523;19;20452;-71
2023/10/25 04:30:12;;;;;;;18.08;14.35;;;9.50;99.90;;;;;;7376962;19;20010;-71
2023/10/25 04:32:42;;;;;;;19.33;15.25;;;9.50;99.90;;;;;;7373635;19;20014;-71
2023/10/25 04:35:12;;;;;;;19.30;15.07;;;9.50;99.90;;;;;;7378502;19;20100;-70
2023/10/25 04:37:42;;;;;;;21.80;15.45;;;9.40;99.90;;;;;;7374346;19;20520;-71
2023/10/25 04:40:15;;;;;;;18.67;15.68;;;9.40;99.90;;;;;;7373753;19;20557;-70
2023/10/25 04:42:49;;;;;;;19.83;16.17;;;9.30;99.90;;;;;;7376551;19;20081;-70
2023/10/25 04:45:20;;;;;;;19.45;15.80;;;9.30;99.90;;;;;;7376066;19;20082;-71
2023/10/25 04:47:51;;;;;;;18.23;14.57;;;9.20;99.90;;;;;;7376654;19;20035;-71
2023/10/25 04:50:23;;;;;;;22.35;16.90;;;9.30;99.90;;;;;;7376659;19;20010;-71
2023/10/25 04:52:53;;;;;;;19.90;15.63;;;9.20;99.90;;;;;;7375950;19;20035;-70
2023/10/25 04:55:26;;;;;;;21.60;15.38;;;9.20;99.90;;;;;;7376268;19;20010;-71
2023/10/25 04:57:56;;;;;;;18.02;14.73;;;9.10;99.90;;;;;;7376848;19;20090;-71
2023/10/25 05:00:26;;;;;;;17.67;14.98;;;9.10;99.90;;;;;;7376352;19;20014;-70
2023/10/25 05:02:57;;;;;;;18.23;14.77;;;9.10;99.90;;;;;;7376384;19;20034;-70
2023/10/25 05:05:27;;;;;;;22.73;15.40;;;9.10;99.90;;;;;;7376754;19;20011;-71
2023/10/25 05:07:58;;;;;;;20.83;15.38;;;9.10;99.90;;;;;;7374503;19;20022;-71
2023/10/25 05:10:31;;;;;;;16.65;14.70;;;9.00;99.90;;;;;;7374910;19;20018;-71
2023/10/25 05:13:02;;;;;;;17.40;14.23;;;9.00;99.90;;;;;;7375417;19;20019;-71
2023/10/25 05:15:35;;;;;;;15.10;12.90;;;8.90;99.90;;;;;;7376019;19;20015;-70
2023/10/25 05:18:05;;;;;;;16.67;12.30;;;8.90;99.90;;;;;;7376769;19;20015;-71
2023/10/25 05:20:36;;;;;;;14.95;12.75;;;8.90;99.90;;;;;;7376284;19;20017;-71
2023/10/25 05:23:07;;;;;;;14.70;12.10;;;8.90;99.90;;;;;;7373827;19;20505;-71
2023/10/25 05:25:40;;;;;;;13.35;11.27;;;8.90;99.90;;;;;;7376105;19;20018;-71
2023/10/25 05:28:12;;;;;;;12.82;10.40;;;8.80;99.90;;;;;;7375814;19;20007;-71
2023/10/25 05:30:43;;;;;;;10.13;8.82;;;8.80;99.90;;;;;;7374895;19;20018;-71
2023/10/25 05:33:16;;;;;;;10.65;9.25;;;8.80;99.90;;;;;;7374965;19;20006;-71
2023/10/25 05:35:47;;;;;;;12.00;10.23;;;8.80;99.90;;;;;;7381953;19;20014;-70
2023/10/25 05:38:17;;;;;;;12.25;10.65;;;8.80;99.90;;;;;;7377593;19;20006;-71
2023/10/25 05:40:53;;;;;;;13.85;12.10;;;8.80;99.90;;;;;;7382262;19;20873;-71
2023/10/25 05:43:30;;;;;;;19.17;13.57;;;8.80;99.90;;;;;;7378093;19;20117;-70
2023/10/25 05:46:00;;;;;;;18.17;13.40;;;8.80;99.90;;;;;;7381607;19;20321;-70
2023/10/25 05:48:31;;;;;;;16.23;14.10;;;8.90;99.90;;;;;;7382271;19;20006;-70
2023/10/25 05:51:05;;;;;;;15.60;11.13;;;8.80;99.90;;;;;;7384366;19;20499;-70
2023/10/25 05:53:35;;;;;;;;;;;8.80;99.90;;;;;;7380580;19;20020;-71
2023/10/25 05:56:09;;;;;;;11.35;9.57;;;8.90;99.90;;;;;;7381699;19;20432;-70
2023/10/25 05:58:39;;;;;;;13.80;10.23;;;8.90;99.90;;;;;;7382419;19;23566;-71
2023/10/25 06:01:11;;;;;;;9.45;8.50;;;8.90;99.90;;;;;;7381697;19;20110;-71
2023/10/25 06:03:47;;;;;;;16.52;9.30;;;8.90;99.90;;;;;;7380183;19;20466;-70
2023/10/25 06:06:19;;;;;;;9.90;8.90;;;9.00;99.90;;;;;;7376109;19;20021;-71
2023/10/25 06:08:49;;;;;;;10.10;8.10;;;8.90;99.90;;;;;;7379809;19;20014;-72
2023/10/25 06:11:23;;;;;;;12.55;8.82;;;9.00;99.90;;;;;;7376693;19;20474;-71
2023/10/25 06:13:53;;;;;;;11.75;9.50;;;9.00;99.90;;;;;;7379190;19;20619;-71
2023/10/25 06:16:23;;;;;;;13.10;9.73;;;9.00;99.90;;;;;;7380545;19;20514;-72
2023/10/25 06:18:53;;;;;;;11.55;9.82;;;9.10;99.90;;;;;;7380739;19;20006;-71
2023/10/25 06:21:23;;;;;;;14.52;9.65;;;9.10;99.90;;;;;;7379950;19;20017;-71
2023/10/25 06:23:54;;;;;;;10.77;9.38;;;9.10;99.90;;;;;;7378119;19;20115;-71
2023/10/25 06:26:27;;;;;;;10.95;9.13;;;9.10;99.90;;;;;;7380760;19;20089;-70
2023/10/25 06:28:59;;;;;;;10.38;8.93;;;9.10;99.90;;;;;;7380620;19;20029;-70
2023/10/25 06:31:30;;;;;;;12.27;9.00;;;9.10;99.90;;;;;;7359917;19;20027;-71
2023/10/25 06:34:00;;;;;;;11.35;8.38;;;9.20;99.90;;;;;;7406121;19;20047;-71
2023/10/25 06:36:33;;;;;;;16.83;9.52;;;9.20;99.90;;;;;;7384726;19;20015;-71
2023/10/25 06:39:04;;;;;;;11.25;8.35;;;9.20;99.90;;;;;;7381690;19;20011;-70
2023/10/25 06:41:38;;;;;;;12.02;8.75;;;9.20;99.90;;;;;;7381056;19;20013;-71
2023/10/25 06:44:09;;;;;;;9.10;8.07;;;9.20;99.90;;;;;;7378473;19;20680;-71
2023/10/25 06:46:40;;;;;;;10.18;7.60;;;9.30;99.90;;;;;;7376846;19;20014;-71
2023/10/25 06:49:11;;;;;;;9.02;7.38;;;9.40;99.90;;;;;;7380022;19;20015;-70
2023/10/25 06:51:42;;;;;;;9.60;7.45;;;9.50;99.90;;;;;;7380319;19;20011;-71
2023/10/25 06:54:14;;;;;;;8.63;7.30;;;9.50;99.90;;;;;;7377799;19;20026;-70
2023/10/25 06:56:47;;;;;;;10.45;7.50;;;9.60;99.90;;;;;;7379508;19;20439;-72
2023/10/25 06:59:17;;;;;;;7.93;7.05;;;9.60;99.90;;;;;;7381129;19;20098;-70
2023/10/25 07:01:56;;;;;;;8.88;7.95;;;9.70;99.90;;;;;;7381451;19;20006;-71
2023/10/25 07:04:28;;;;;;;10.20;8.15;;;9.90;99.90;;;;;;7377505;19;20078;-71
2023/10/25 07:06:59;;;;;;;11.77;9.02;;;9.90;99.90;;;;;;7379939;19;20020;-72
2023/10/25 07:09:30;;;;;;;9.95;8.43;;;9.90;99.90;;;;;;7380043;19;20043;-71
2023/10/25 07:12:03;;;;;;;12.15;10.95;;;9.90;95.40;;;;;;7378556;19;20482;-70
2023/10/25 07:14:51;;;;;;;10.65;8.30;;;10.10;99.80;;;;;;7379413;19;20364;-71
2023/10/25 07:17:21;;;;;;;10.13;7.50;;;10.20;93.00;;;;;;7379075;19;20462;-70
2023/10/25 07:19:51;;;;;;;9.75;7.53;;;10.20;87.20;;;;;;7379204;19;20077;-70
2023/10/25 07:22:22;;;;;;;7.60;6.80;;;10.20;66.40;;;;;;7380227;19;20502;-71
2023/10/25 07:24:59;;;;;;;10.40;6.57;;;10.40;78.80;;;;;;7377337;19;20091;-70
2023/10/25 07:27:32;;;;;;;7.95;7.15;;;10.40;62.20;;;;;;7378439;19;20014;-70
2023/10/25 07:30:03;;;;;;;7.65;6.57;;;10.50;60.50;;;;;;7377400;19;20069;-71
2023/10/25 07:32:35;;;;;;;7.35;6.60;;;10.50;58.70;;;;;;7376995;19;20530;-71
2023/10/25 07:35:05;;;;;;;10.43;6.60;;;10.40;58.30;;;;;;7377477;19;20023;-71
2023/10/25 07:37:35;;;;;;;8.02;6.00;;;10.60;65.80;;;;;;7378011;19;20011;-70
2023/10/25 07:40:05;;;;;;;7.43;6.68;;;10.70;56.00;;;;;;7377445;19;20013;-71
2023/10/25 07:42:38;;;;;;;13.32;6.65;;;11.00;54.30;;;;;;7376948;19;20002;-70
2023/10/25 07:45:09;;;;;;;9.48;6.68;;;10.90;37.40;;;;;;7378290;19;20054;-71
2023/10/25 07:47:39;;;;;;;7.97;6.15;;;11.00;45.00;;;;;;7377002;19;20014;-71
2023/10/25 07:50:10;;;;;;;8.52;6.55;;;10.90;37.00;;;;;;7377840;19;20014;-70
2023/10/25 07:52:40;;;;;;;10.43;8.05;;;10.90;47.60;;;;;;7377301;19;20010;-71
2023/10/25 07:55:10;;;;;;;8.27;7.32;;;10.80;44.10;;;;;;7377467;19;20014;-70
2023/10/25 07:58:03;;;;;;;8.15;6.95;;;10.80;51.00;;;;;;7371626;19;20014;-71
2023/10/25 08:00:53;;;;;;;8.05;7.18;;;10.80;52.10;;;;;;7375427;19;20139;-72
2023/10/25 08:03:24;;;;;;;7.82;7.00;;;10.80;57.00;;;;;;7378351;19;20067;-70
2023/10/25 08:05:54;;;;;;;8.70;7.35;;;10.80;56.80;;;;;;7376140;19;20382;-70
2023/10/25 08:08:24;;;;;;;8.45;6.95;;;10.90;64.20;;;;;;7377362;19;20017;-70
2023/10/25 08:11:00;;;;;;;7.78;6.97;;;11.10;62.50;;;;;;7377487;19;20014;-71
2023/10/25 08:13:33;;;;;;;7.18;6.30;;;11.10;49.70;;;;;;7376124;19;20007;-71
2023/10/25 08:16:04;;;;;;;11.70;6.93;;;11.20;40.80;;;;;;7376928;19;20007;-71
2023/10/25 08:18:35;;;;;;;7.68;6.72;;;11.40;37.00;;;;;;7378403;19;20395;-71
2023/10/25 08:21:06;;;;;;;6.53;5.93;;;11.40;27.30;;;;;;7377494;19;20094;-71
2023/10/25 08:23:37;;;;;;;7.00;6.10;;;11.40;27.90;;;;;;7375842;19;20051;-71
2023/10/25 08:26:07;;;;;;;6.90;6.10;;;11.50;24.30;;;;;;7376358;19;20470;-71
2023/10/25 08:28:40;;;;;;;7.70;6.03;;;11.60;25.20;;;;;;7376663;19;20018;-71
2023/10/25 08:31:16;;;;;;;6.38;5.68;;;11.80;21.90;;;;;;7377786;19;20015;-71
2023/10/25 08:33:46;;;;;;;8.25;5.65;;;12.00;17.30;;;;;;7376333;19;20031;-72
2023/10/25 08:36:16;;;;;;;6.13;5.43;;;12.00;7.10;;;;;;7376742;19;20478;-70
2023/10/25 08:38:46;;;;;;;8.93;5.65;;;12.10;9.90;;;;;;7375646;19;20011;-70
2023/10/25 08:41:17;;;;;;;6.10;5.20;;;12.20;3.80;;;;;;7376730;19;20010;-71
2023/10/25 08:43:50;;;;;;;5.47;4.50;;;12.20;3.90;;;;;;7375241;19;20048;-71
2023/10/25 08:46:22;;;;;;;7.53;5.15;;;12.20;3.10;;;;;;7376283;19;20011;-71
2023/10/25 08:48:53;;;;;;;4.88;4.43;;;12.40;2.40;;;;;;7377284;19;20011;-71
2023/10/25 08:51:24;;;;;;;5.53;4.60;;;12.30;1.10;;;;;;7373778;19;20474;-71
2023/10/25 08:53:55;;;;;;;10.15;4.50;;;12.30;1.00;;;;;;7373013;19;20340;-71
2023/10/25 08:56:25;;;;;;;7.60;4.93;;;12.30;1.00;;;;;;7376055;19;20013;-72
2023/10/25 08:59:02;;;;;;;11.80;5.20;;;12.30;1.00;;;;;;7376531;19;20013;-71
2023/10/25 09:01:32;;;;;;;6.10;5.50;;;12.30;1.00;;;;;;7376229;19;20025;-70
2023/10/25 09:04:09;;;;;;;7.40;5.28;;;12.20;1.00;;;;;;7374503;19;20482;-71
2023/10/25 09:06:39;;;;;;;6.15;5.43;;;12.20;3.70;;;;;;7375714;19;20470;-72
2023/10/25 09:09:11;;;;;;;5.88;5.28;;;12.10;1.00;;;;;;7373375;19;20015;-72
2023/10/25 09:11:46;;;;;;;6.00;5.40;;;12.10;3.70;;;;;;7375758;19;20681;-72
2023/10/25 09:14:18;;;;;;;5.43;4.65;;;12.20;9.60;;;;;;7374379;19;20513;-71
2023/10/25 09:16:49;;;;;;;5.45;4.93;;;12.10;3.90;;;;;;7375771;19;20395;-71
2023/10/25 09:19:23;;;;;;;5.00;4.50;;;12.10;7.60;;;;;;7375988;19;20021;-71
2023/10/25 09:21:53;;;;;;;4.82;4.10;;;12.00;9.20;;;;;;7375392;19;20380;-71
2023/10/25 09:24:23;;;;;;;7.97;4.28;;;12.10;8.60;;;;;;7376332;19;20011;-71
2023/10/25 09:26:55;;;;;;;5.03;4.53;;;12.10;8.70;;;;;;7375821;19;20074;-71
2023/10/25 09:29:35;;;;;;;6.07;5.07;;;11.90;13.20;;;;;;7373790;19;20010;-72
2023/10/25 09:32:09;;;;;;;7.93;5.22;;;11.90;16.10;;;;;;7374540;19;20010;-71
2023/10/25 09:34:39;;;;;;;5.40;4.57;;;12.00;20.20;;;;;;7375583;19;20332;-71
2023/10/25 09:37:09;;;;;;;7.60;5.03;;;12.00;27.30;;;;;;7374131;19;20023;-71
2023/10/25 09:39:39;;;;;;;5.53;4.68;;;11.90;34.00;;;;;;7375689;19;20541;-70
2023/10/25 09:42:12;;;;;;;8.75;5.95;;;11.90;49.70;;;;;;7375077;19;20048;-71
2023/10/25 09:44:50;;;;;;;7.60;4.85;;;11.80;52.80;;;;;;7374286;19;20002;-71
2023/10/25 09:47:21;;;;;;;6.63;5.57;;;11.80;64.40;;;;;;7375672;19;20023;-72
2023/10/25 09:49:57;;;;;;;7.35;5.70;;;11.80;68.50;;;;;;7371635;19;20006;-71
2023/10/25 09:52:28;;;;;;;7.95;5.50;;;11.90;70.60;;;;;;7368465;19;20025;-72
2023/10/25 09:55:07;;;;;;;7.20;5.15;;;11.90;68.70;;;;;;7374314;19;20025;-70
2023/10/25 09:57:38;;;;;;;5.60;5.10;;;11.90;64.00;;;;;;7374495;19;20003;-70
2023/10/25 10:00:13;;;;;;;6.63;5.53;;;11.90;72.40;;;;;;7373243;19;20028;-70
2023/10/25 10:02:51;;;;;;;7.88;5.60;;;11.90;72.90;;;;;;7373988;19;20025;-70
2023/10/25 10:05:26;;;;;;;6.13;5.40;;;12.00;74.10;;;;;;7375600;19;20013;-71
2023/10/25 10:08:04;;;;;;;6.90;5.82;;;12.00;77.00;;;;;;7371358;19;20364;-70
2023/10/25 10:10:39;;;;;;;6.68;5.65;;;12.10;79.20;;;;;;7373372;19;20010;-73
2023/10/25 10:13:18;;;;;;;5.65;4.82;;;12.10;74.90;;;;;;7372631;19;20011;-71
2023/10/25 10:16:02;;;;;;;6.80;5.63;;;12.10;64.00;;;;;;7374497;19;20020;-70
2023/10/25 10:18:35;;;;;;;8.60;6.78;;;12.20;55.60;;;;;;7367695;19;20769;-71
2023/10/25 10:21:10;;;;;;;12.88;8.57;;;12.20;59.80;;;;;;7376285;19;20014;-71
2023/10/25 10:23:45;;;;;;;10.40;7.20;;;12.30;59.20;;;;;;7379706;19;20006;-71
2023/10/25 10:26:35;;;;;;;8.55;6.47;;;12.30;50.30;;;;;;7380734;19;20010;-71
2023/10/25 10:29:06;;;;;;;6.57;4.75;;;12.40;49.00;;;;;;6869386;19;2005525;-71
2023/10/25 10:31:58;;;;;;;5.90;4.28;;;12.40;47.20;;;;;;7380015;19;20011;-71
2023/10/25 10:34:39;;;;;;;4.35;3.75;;;12.40;45.30;;;;;;7377461;19;20077;-70
2023/10/25 10:37:10;;;;;;;4.20;3.80;;;12.40;46.10;;;;;;7380515;19;20086;-71
2023/10/25 10:40:01;;;;;;;4.45;3.90;;;12.50;45.20;;;;;;7380298;19;20032;-70
2023/10/25 10:42:35;;;;;;;3.95;3.35;;;12.50;39.70;;;;;;7375913;19;20011;-70
2023/10/25 10:45:07;;;;;;;6.07;3.40;;;12.60;35.00;;;;;;7379560;19;20106;-70
2023/10/25 10:47:43;;;;;;;3.75;3.35;;;12.60;26.60;;;;;;7379963;19;20014;-70
2023/10/25 10:50:18;;;;;;;4.07;3.45;;;12.70;26.10;;;;;;7380329;19;20046;-70
2023/10/25 10:52:50;;;;;;;3.65;3.35;;;12.70;24.10;;;;;;7377084;19;20011;-71
2023/10/25 10:55:21;;;;;;;8.63;3.53;;;12.70;16.60;;;;;;7379296;19;20056;-71
2023/10/25 10:57:52;;;;;;;4.40;4.00;;;12.80;18.00;;;;;;7379972;19;20007;-71
2023/10/25 11:00:37;;;;;;;3.88;3.40;;;12.90;21.30;;;;;;6868992;19;2004043;-72
2023/10/25 11:03:10;;;;;;;5.63;3.70;;;13.00;17.40;;;;;;7377522;19;20010;-71
2023/10/25 11:05:40;;;;;;;7.38;3.75;;;13.00;8.90;;;;;;7380255;19;20462;-71
2023/10/25 11:08:15;;;;;;;3.92;3.47;;;13.10;7.10;;;;;;7380381;19;20367;-71
2023/10/25 11:10:46;;;;;;;4.65;3.30;;;13.20;2.80;;;;;;7380250;19;20010;-71
2023/10/25 11:13:17;;;;;;;4.85;3.67;;;13.30;5.00;;;;;;7377551;19;20090;-71
2023/10/25 11:15:47;;;;;;;4.82;3.30;;;13.30;4.20;;;;;;7379908;19;20022;-71
2023/10/25 11:18:19;;;;;;;3.00;2.70;;;13.30;3.50;;;;;;7377969;19;23677;-71
2023/10/25 11:20:50;;;;;;;4.10;2.88;;;13.30;1.00;;;;;;7377839;19;20090;-71
2023/10/25 11:23:21;;;;;;;3.38;2.70;;;13.30;3.00;;;;;;7378038;19;20006;-71
2023/10/25 11:25:50;;;;;;;2.53;2.33;;;13.20;2.90;;;;;;7378157;19;20018;-70
2023/10/25 11:28:21;;;;;;;3.10;2.50;;;13.20;5.00;;;;;;7378323;19;20046;-70
2023/10/25 11:30:52;;;;;;;4.38;3.15;;;13.30;1.00;;;;;;7379050;19;20010;-71
2023/10/25 11:33:25;;;;;;;4.15;2.92;;;13.30;1.00;;;;;;7377455;19;20014;-72
2023/10/25 11:35:57;;;;;;;3.17;2.40;;;13.50;1.00;;;;;;7380372;19;20013;-72
2023/10/25 11:38:27;;;;;;;3.05;2.75;;;13.70;1.00;;;;;;7380442;19;20006;-71
2023/10/25 11:40:58;;;;;;;3.72;2.53;;;13.90;1.00;;;;;;7377737;19;20532;-72
2023/10/25 11:43:28;;;;;;;4.80;2.85;;;14.00;1.00;;;;;;7378066;19;20003;-71
2023/10/25 11:45:58;;;;;;;4.38;3.05;;;14.10;1.00;;;;;;7378211;19;20116;-72
2023/10/25 11:48:30;;;;;;;3.83;2.58;;;14.20;1.00;;;;;;7377720;19;20062;-70
2023/10/25 11:51:00;;;;;;;2.80;2.47;;;14.30;1.00;;;;;;7377440;19;20076;-70
2023/10/25 11:53:30;;;;;;;4.20;2.95;;;14.30;1.00;;;;;;7376973;19;20006;-70
2023/10/25 11:56:01;;;;;;;5.35;2.90;;;14.30;1.00;;;;;;7377414;19;20097;-71
2023/10/25 11:58:31;;;;;;;4.03;3.22;;;14.30;1.00;;;;;;7378875;19;20362;-70
2023/10/25 12:01:04;;;;;;;5.40;3.13;;;14.40;1.00;;;;;;7376839;19;20010;-71
2023/10/25 12:03:41;;;;;;;3.65;3.05;;;14.50;1.00;;;;;;7376321;19;20482;-71
2023/10/25 12:06:11;;;;;;;5.68;3.53;;;14.60;1.00;;;;;;7377943;19;20018;-72
2023/10/25 12:08:42;;;;;;;3.65;2.83;;;14.70;1.00;;;;;;7379202;19;20017;-71
2023/10/25 12:11:13;;;;;;;4.45;2.97;;;14.80;1.00;;;;;;7378202;19;20019;-71
2023/10/25 12:13:44;;;;;;;5.20;2.30;;;14.90;1.00;;;;;;7375786;19;20014;-72
2023/10/25 12:16:14;;;;;;;4.55;2.30;;;14.80;1.00;;;;;;7378501;19;20017;-72
2023/10/25 12:18:47;;;;;;;5.90;3.35;;;14.70;1.00;;;;;;7378099;19;20018;-72
2023/10/25 12:21:17;;;;;;;3.97;2.20;;;14.60;1.00;;;;;;7376717;19;20541;-72
2023/10/25 12:23:47;;;;;;;2.85;1.73;;;14.60;1.00;;;;;;7375993;19;20379;-72
2023/10/25 12:26:17;;;;;;;3.65;2.00;;;14.60;1.00;;;;;;7377985;19;20669;-72
2023/10/25 12:28:47;;;;;;;2.42;1.63;;;14.60;1.00;;;;;;7378043;19;20474;-72
2023/10/25 12:31:17;;;;;;;3.22;2.10;;;14.60;1.00;;;;;;7377363;19;20011;-72
2023/10/25 12:33:51;;;;;;;5.07;2.20;;;14.60;1.00;;;;;;7376719;19;23737;-72
2023/10/25 12:36:20;;;;;;;5.68;3.03;;;14.60;1.00;;;;;;7376720;19;20025;-70
2023/10/25 12:38:50;;;;;;;3.80;2.47;;;14.70;1.00;;;;;;7377621;19;20018;-71
2023/10/25 12:41:20;;;;;;;2.97;2.10;;;14.60;1.00;;;;;;7376731;19;20313;-71
2023/10/25 12:43:50;;;;;;;3.75;2.63;;;14.70;1.00;;;;;;7376665;19;20014;-73
2023/10/25 12:46:20;;;;;;;5.78;3.65;;;14.70;1.00;;;;;;7377394;19;20022;-71
2023/10/25 12:48:53;;;;;;;3.25;2.08;;;14.70;1.00;;;;;;7376566;19;20469;-71
2023/10/25 12:51:25;;;;;;;3.08;1.90;;;14.80;1.00;;;;;;7376000;19;20026;-71
2023/10/25 12:53:55;;;;;;;3.38;1.58;;;14.80;1.00;;;;;;7374466;19;20101;-71
2023/10/25 12:56:25;;;;;;;2.65;1.33;;;14.80;1.00;;;;;;7376110;19;20784;-72
2023/10/25 12:58:56;;;;;;;2.30;1.02;;;14.70;1.00;;;;;;7378223;19;20077;-71
2023/10/25 13:01:25;;;;;;;1.92;1.30;;;14.90;1.00;;;;;;7376544;19;20010;-71
2023/10/25 13:03:58;;;;;;;1.60;1.10;;;15.00;1.00;;;;;;7374843;19;20013;-72
2023/10/25 13:06:31;;;;;;;1.83;1.20;;;15.00;1.00;;;;;;7377758;19;20087;-71
2023/10/25 13:09:01;;;;;;;1.88;1.30;;;15.10;1.00;;;;;;7373536;19;20026;-72